sensor_id;sensor_type;location;lat;lon;timestamp;pressure;altitude;pressure_sealevel;temperature;humidity
39789;BME280;25478;42.626;23.320;2023-04-04T00:00:17;91664.56;;;6.65;100.00
39789;BME280;25478;42.626;23.320;2023-04-04T00:02:43;91680.19;;;6.72;100.00
39789;BME280;25478;42.626;23.320;2023-04-04T00:05:09;91677.97;;;6.74;100.00
39789;BME280;25478;42.626;23.320;2023-04-04T00:07:34;91693.28;;;6.72;100.00
39789;BME280;25478;42.626;23.320;2023-04-04T00:10:00;91690.28;;;6.73;100.00
39789;BME280;25478;42.626;23.320;2023-04-04T00:12:25;91692.53;;;6.75;100.00
39789;BME280;25478;42.626;23.320;2023-04-04T00:14:52;91698.88;;;6.74;100.00
39789;BME280;25478;42.626;23.320;2023-04-04T00:17:18;91693.63;;;6.77;100.00
39789;BME280;25478;42.626;23.320;2023-04-04T00:19:44;91683.22;;;6.67;100.00
39789;BME280;25478;42.626;23.320;2023-04-04T00:22:10;91670.50;;;6.69;100.00
39789;BME280;25478;42.626;23.320;2023-04-04T00:24:39;91709.66;;;6.83;100.00
39789;BME280;25478;42.626;23.320;2023-04-04T00:27:04;91688.00;;;6.79;100.00
39789;BME280;25478;42.626;23.320;2023-04-04T00:29:30;91686.13;;;6.80;100.00
39789;BME280;25478;42.626;23.320;2023-04-04T00:31:56;91676.09;;;6.74;100.00
39789;BME280;25478;42.626;23.320;2023-04-04T00:34:22;91670.13;;;6.74;100.00
39789;BME280;25478;42.626;23.320;2023-04-04T00:36:47;91671.25;;;6.69;100.00
39789;BME280;25478;42.626;23.320;2023-04-04T00:39:13;91670.50;;;6.69;100.00
39789;BME280;25478;42.626;23.320;2023-04-04T00:41:39;91662.69;;;6.65;100.00
39789;BME280;25478;42.626;23.320;2023-04-04T00:44:05;91659.69;;;6.63;100.00
39789;BME280;25478;42.626;23.320;2023-04-04T00:46:31;91644.84;;;6.49;100.00
39789;BME280;25478;42.626;23.320;2023-04-04T00:48:57;91640.72;;;6.52;100.00
39789;BME280;25478;42.626;23.320;2023-04-04T00:51:23;91645.13;;;6.66;100.00
39789;BME280;25478;42.626;23.320;2023-04-04T00:53:50;91655.94;;;6.68;100.00
39789;BME280;25478;42.626;23.320;2023-04-04T00:56:16;91646.63;;;6.67;100.00
39789;BME280;25478;42.626;23.320;2023-04-04T00:58:43;91642.53;;;6.62;100.00
39789;BME280;25478;42.626;23.320;2023-04-04T01:01:09;91651.47;;;6.68;100.00
39789;BME280;25478;42.626;23.320;2023-04-04T01:03:38;91655.56;;;6.73;100.00
39789;BME280;25478;42.626;23.320;2023-04-04T01:06:05;91654.03;;;6.75;100.00
39789;BME280;25478;42.626;23.320;2023-04-04T01:08:31;91664.09;;;6.77;100.00
39789;BME280;25478;42.626;23.320;2023-04-04T01:10:59;91667.50;;;6.74;100.00
39789;BME280;25478;42.626;23.320;2023-04-04T01:13:25;91651.91;;;6.56;100.00
39789;BME280;25478;42.626;23.320;2023-04-04T01:15:51;91655.63;;;6.59;100.00
39789;BME280;25478;42.626;23.320;2023-04-04T01:18:19;91656.75;;;6.58;100.00
39789;BME280;25478;42.626;23.320;2023-04-04T01:20:53;91645.25;;;6.44;100.00
39789;BME280;25478;42.626;23.320;2023-04-04T01:23:23;91662.78;;;6.51;100.00
39789;BME280;25478;42.626;23.320;2023-04-04T01:26:02;91655.69;;;6.44;100.00
39789;BME280;25478;42.626;23.320;2023-04-04T01:28:28;91655.72;;;6.41;100.00
39789;BME280;25478;42.626;23.320;2023-04-04T01:30:54;91640.88;;;6.24;100.00
39789;BME280;25478;42.626;23.320;2023-04-04T01:33:24;91644.19;;;6.35;100.00
39789;BME280;25478;42.626;23.320;2023-04-04T01:41:07;91645.34;;;6.27;100.00
39789;BME280;25478;42.626;23.320;2023-04-04T01:43:35;91648.69;;;6.27;100.00
39789;BME280;25478;42.626;23.320;2023-04-04T01:46:02;91636.72;;;6.33;100.00
39789;BME280;25478;42.626;23.320;2023-04-04T01:48:28;91622.56;;;6.31;100.00
39789;BME280;25478;42.626;23.320;2023-04-04T01:50:56;91614.75;;;6.24;100.00
39789;BME280;25478;42.626;23.320;2023-04-04T01:53:24;91614.38;;;6.25;100.00
39789;BME280;25478;42.626;23.320;2023-04-04T01:55:50;91608.78;;;6.23;100.00
39789;BME280;25478;42.626;23.320;2023-04-04T01:58:17;91605.03;;;6.20;100.00
39789;BME280;25478;42.626;23.320;2023-04-04T02:00:43;91612.53;;;6.18;100.00
39789;BME280;25478;42.626;23.320;2023-04-04T02:03:09;91621.09;;;6.19;100.00
39789;BME280;25478;42.626;23.320;2023-04-04T02:05:34;91624.09;;;6.17;100.00
39789;BME280;25478;42.626;23.320;2023-04-04T02:08:00;91622.22;;;6.18;100.00
39789;BME280;25478;42.626;23.320;2023-04-04T02:10:33;91617.38;;;6.20;100.00
39789;BME280;25478;42.626;23.320;2023-04-04T02:12:58;91608.09;;;6.08;100.00
39789;BME280;25478;42.626;23.320;2023-04-04T02:15:24;91616.25;;;6.21;100.00
39789;BME280;25478;42.626;23.320;2023-04-04T02:17:49;91614.75;;;6.24;100.00
39789;BME280;25478;42.626;23.320;2023-04-04T02:20:15;91595.00;;;6.12;100.00
39789;BME280;25478;42.626;23.320;2023-04-04T02:22:51;91610.97;;;6.28;100.00
39789;BME280;25478;42.626;23.320;2023-04-04T02:25:17;91605.72;;;6.35;100.00
39789;BME280;25478;42.626;23.320;2023-04-04T02:27:42;91620.28;;;6.36;100.00
39789;BME280;25478;42.626;23.320;2023-04-04T02:30:08;91611.34;;;6.30;100.00
39789;BME280;25478;42.626;23.320;2023-04-04T02:32:35;91617.34;;;6.31;100.00
39789;BME280;25478;42.626;23.320;2023-04-04T02:35:03;91616.56;;;6.30;100.00
39789;BME280;25478;42.626;23.320;2023-04-04T02:37:30;91619.13;;;6.37;100.00
39789;BME280;25478;42.626;23.320;2023-04-04T02:39:56;91597.88;;;6.35;100.00
39789;BME280;25478;42.626;23.320;2023-04-04T02:42:22;91612.03;;;6.41;100.00
39789;BME280;25478;42.626;23.320;2023-04-04T02:44:49;91615.75;;;6.44;100.00
39789;BME280;25478;42.626;23.320;2023-04-04T02:47:16;91608.28;;;6.42;100.00
39789;BME280;25478;42.626;23.320;2023-04-04T02:49:43;91608.28;;;6.42;100.00
39789;BME280;25478;42.626;23.320;2023-04-04T02:52:10;91619.84;;;6.48;100.00
39789;BME280;25478;42.626;23.320;2023-04-04T02:54:39;91621.28;;;6.53;100.00
39789;BME280;25478;42.626;23.320;2023-04-04T02:57:07;91621.28;;;6.57;100.00
39789;BME280;25478;42.626;23.320;2023-04-04T02:59:33;91612.31;;;6.58;100.00
39789;BME280;25478;42.626;23.320;2023-04-04T03:01:58;91596.66;;;6.51;100.00
39789;BME280;25478;42.626;23.320;2023-04-04T03:04:24;91612.22;;;6.68;100.00
39789;BME280;25478;42.626;23.320;2023-04-04T03:06:50;91610.75;;;6.67;100.00
39789;BME280;25478;42.626;23.320;2023-04-04T03:09:16;91618.94;;;6.69;100.00
39789;BME280;25478;42.626;23.320;2023-04-04T03:11:42;91620.81;;;6.69;100.00
39789;BME280;25478;42.626;23.320;2023-04-04T03:14:08;91627.94;;;6.68;100.00
39789;BME280;25478;42.626;23.320;2023-04-04T03:16:37;91601.13;;;6.54;100.00
39789;BME280;25478;42.626;23.320;2023-04-04T03:19:03;91626.41;;;6.71;100.00
39789;BME280;25478;42.626;23.320;2023-04-04T03:21:28;91616.72;;;6.68;100.00
39789;BME280;25478;42.626;23.320;2023-04-04T03:23:56;91621.56;;;6.73;100.00
39789;BME280;25478;42.626;23.320;2023-04-04T03:26:23;91624.13;;;6.76;100.00
39789;BME280;25478;42.626;23.320;2023-04-04T03:28:49;91618.94;;;6.69;100.00
39789;BME280;25478;42.626;23.320;2023-04-04T03:31:18;91628.97;;;6.78;100.00
39789;BME280;25478;42.626;23.320;2023-04-04T03:33:44;91638.34;;;6.75;100.00
39789;BME280;25478;42.626;23.320;2023-04-04T03:36:11;91613.75;;;6.62;100.00
39789;BME280;25478;42.626;23.320;2023-04-04T03:38:37;91631.25;;;6.72;100.00
39789;BME280;25478;42.626;23.320;2023-04-04T03:41:03;91638.34;;;6.72;100.00
39789;BME280;25478;42.626;23.320;2023-04-04T03:43:30;91639.13;;;6.69;100.00
39789;BME280;25478;42.626;23.320;2023-04-04T03:46:04;91637.69;;;6.64;100.00
39789;BME280;25478;42.626;23.320;2023-04-04T03:48:30;91641.81;;;6.58;100.00
39789;BME280;25478;42.626;23.320;2023-04-04T03:50:56;91641.84;;;6.51;100.00
39789;BME280;25478;42.626;23.320;2023-04-04T03:53:25;91627.72;;;6.41;100.00
39789;BME280;25478;42.626;23.320;2023-04-04T03:55:54;91621.84;;;6.23;100.00
39789;BME280;25478;42.626;23.320;2023-04-04T03:58:20;91645.72;;;6.25;100.00
39789;BME280;25478;42.626;23.320;2023-04-04T04:00:46;91627.50;;;6.11;100.00
39789;BME280;25478;42.626;23.320;2023-04-04T04:03:11;91636.41;;;6.20;100.00
39789;BME280;25478;42.626;23.320;2023-04-04T04:05:37;91631.91;;;6.21;100.00
39789;BME280;25478;42.626;23.320;2023-04-04T04:08:02;91629.69;;;6.23;100.00
39789;BME280;25478;42.626;23.320;2023-04-04T04:10:28;91643.84;;;6.26;100.00
39789;BME280;25478;42.626;23.320;2023-04-04T04:12:53;91647.56;;;6.28;100.00
39789;BME280;25478;42.626;23.320;2023-04-04T04:15:20;91639.34;;;6.30;100.00
39789;BME280;25478;42.626;23.320;2023-04-04T04:17:45;91645.31;;;6.34;100.00
39789;BME280;25478;42.626;23.320;2023-04-04T04:20:11;91645.66;;;6.36;100.00
39789;BME280;25478;42.626;23.320;2023-04-04T04:22:45;91639.34;;;6.33;100.00
39789;BME280;25478;42.626;23.320;2023-04-04T04:25:14;91645.28;;;6.37;100.00
39789;BME280;25478;42.626;23.320;2023-04-04T04:27:43;91646.75;;;6.42;100.00
39789;BME280;25478;42.626;23.320;2023-04-04T04:30:11;91649.72;;;6.44;100.00
39789;BME280;25478;42.626;23.320;2023-04-04T04:32:40;91650.13;;;6.42;100.00
39789;BME280;25478;42.626;23.320;2023-04-04T04:35:07;91651.22;;;6.45;100.00
39789;BME280;25478;42.626;23.320;2023-04-04T04:37:36;91649.34;;;6.45;100.00
39789;BME280;25478;42.626;23.320;2023-04-04T04:40:05;91658.66;;;6.50;100.00
39789;BME280;25478;42.626;23.320;2023-04-04T04:42:42;91638.22;;;6.34;100.00
39789;BME280;25478;42.626;23.320;2023-04-04T04:45:08;91642.66;;;6.37;100.00
39789;BME280;25478;42.626;23.320;2023-04-04T04:47:36;91660.53;;;6.49;100.00
39789;BME280;25478;42.626;23.320;2023-04-04T04:50:05;91675.41;;;6.60;100.00
39789;BME280;25478;42.626;23.320;2023-04-04T04:52:37;91673.91;;;6.66;100.00
39789;BME280;25478;42.626;23.320;2023-04-04T04:55:04;91675.75;;;6.69;100.00
39789;BME280;25478;42.626;23.320;2023-04-04T04:57:30;91674.59;;;6.70;100.00
39789;BME280;25478;42.626;23.320;2023-04-04T05:00:00;91663.44;;;6.62;100.00
39789;BME280;25478;42.626;23.320;2023-04-04T05:02:26;91679.84;;;6.70;100.00
39789;BME280;25478;42.626;23.320;2023-04-04T05:04:54;91690.31;;;6.70;100.00
39789;BME280;25478;42.626;23.320;2023-04-04T05:07:20;91699.25;;;6.72;100.00
39789;BME280;25478;42.626;23.320;2023-04-04T05:09:47;91697.75;;;6.75;100.00
39789;BME280;25478;42.626;23.320;2023-04-04T05:12:13;91672.03;;;6.63;100.00
39789;BME280;25478;42.626;23.320;2023-04-04T05:14:43;91686.94;;;6.73;100.00
39789;BME280;25478;42.626;23.320;2023-04-04T05:17:09;91706.66;;;6.85;100.00
39789;BME280;25478;42.626;23.320;2023-04-04T05:19:35;91714.09;;;6.93;100.00
39789;BME280;25478;42.626;23.320;2023-04-04T05:22:00;91710.69;;;7.00;100.00
39789;BME280;25478;42.626;23.320;2023-04-04T05:24:35;91708.38;;;7.05;100.00
39789;BME280;25478;42.626;23.320;2023-04-04T05:27:00;91695.00;;;7.00;100.00
39789;BME280;25478;42.626;23.320;2023-04-04T05:29:30;91686.75;;;7.01;100.00
39789;BME280;25478;42.626;23.320;2023-04-04T05:32:00;91711.31;;;7.18;100.00
39789;BME280;25478;42.626;23.320;2023-04-04T05:34:26;91685.56;;;7.10;100.00
39789;BME280;25478;42.626;23.320;2023-04-04T05:36:53;91705.66;;;7.23;100.00
39789;BME280;25478;42.626;23.320;2023-04-04T05:39:18;91706.47;;;7.17;100.00
39789;BME280;25478;42.626;23.320;2023-04-04T05:41:56;91715.75;;;7.25;100.00
39789;BME280;25478;42.626;23.320;2023-04-04T05:44:22;91720.25;;;7.21;100.00
39789;BME280;25478;42.626;23.320;2023-04-04T05:46:48;91726.22;;;7.25;100.00
39789;BME280;25478;42.626;23.320;2023-04-04T05:49:13;91726.56;;;7.27;100.00
39789;BME280;25478;42.626;23.320;2023-04-04T05:51:44;91722.03;;;7.31;100.00
39789;BME280;25478;42.626;23.320;2023-04-04T05:54:13;91719.78;;;7.37;100.00
39789;BME280;25478;42.626;23.320;2023-04-04T05:56:39;91714.91;;;7.35;100.00
39789;BME280;25478;42.626;23.320;2023-04-04T05:59:10;91730.53;;;7.49;100.00
39789;BME280;25478;42.626;23.320;2023-04-04T06:01:49;91731.28;;;7.50;100.00
39789;BME280;25478;42.626;23.320;2023-04-04T06:04:15;91729.06;;;7.45;100.00
39789;BME280;25478;42.626;23.320;2023-04-04T06:06:42;91726.09;;;7.43;100.00
39789;BME280;25478;42.626;23.320;2023-04-04T06:09:08;91717.94;;;7.33;100.00
39789;BME280;25478;42.626;23.320;2023-04-04T06:11:33;91734.34;;;7.41;100.00
39789;BME280;25478;42.626;23.320;2023-04-04T06:14:03;91734.34;;;7.41;100.00
39789;BME280;25478;42.626;23.320;2023-04-04T06:16:29;91744.75;;;7.48;100.00
39789;BME280;25478;42.626;23.320;2023-04-04T06:18:55;91738.31;;;7.56;100.00
39789;BME280;25478;42.626;23.320;2023-04-04T06:21:21;91744.19;;;7.71;100.00
39789;BME280;25478;42.626;23.320;2023-04-04T06:23:46;91743.66;;;7.87;100.00
39789;BME280;25478;42.626;23.320;2023-04-04T06:26:12;91731.84;;;8.09;100.00
39789;BME280;25478;42.626;23.320;2023-04-04T06:28:50;91739.88;;;8.33;100.00
39789;BME280;25478;42.626;23.320;2023-04-04T06:31:28;91736.31;;;8.50;100.00
39789;BME280;25478;42.626;23.320;2023-04-04T06:33:57;91746.22;;;8.66;100.00
39789;BME280;25478;42.626;23.320;2023-04-04T06:36:27;91754.47;;;8.68;100.00
39789;BME280;25478;42.626;23.320;2023-04-04T06:38:53;91759.06;;;8.60;100.00
39789;BME280;25478;42.626;23.320;2023-04-04T06:41:21;91763.25;;;8.54;100.00
39789;BME280;25478;42.626;23.320;2023-04-04T06:43:48;91767.88;;;8.43;99.84
39789;BME280;25478;42.626;23.320;2023-04-04T06:46:14;91765.69;;;8.34;100.00
39789;BME280;25478;42.626;23.320;2023-04-04T06:48:39;91774.78;;;8.23;100.00
39789;BME280;25478;42.626;23.320;2023-04-04T06:51:06;91768.22;;;8.07;100.00
39789;BME280;25478;42.626;23.320;2023-04-04T06:53:33;91779.66;;;7.83;99.72
39789;BME280;25478;42.626;23.320;2023-04-04T06:55:59;91789.28;;;7.48;99.82
39789;BME280;25478;42.626;23.320;2023-04-04T06:58:28;91758.16;;;6.98;99.81
39789;BME280;25478;42.626;23.320;2023-04-04T07:00:54;91805.31;;;6.84;99.66
39789;BME280;25478;42.626;23.320;2023-04-04T07:03:21;91806.53;;;6.55;99.82
39789;BME280;25478;42.626;23.320;2023-04-04T07:05:48;91817.06;;;6.33;99.83
39789;BME280;25478;42.626;23.320;2023-04-04T07:08:13;91830.53;;;6.17;100.00
39789;BME280;25478;42.626;23.320;2023-04-04T07:10:39;91834.28;;;6.02;100.00
39789;BME280;25478;42.626;23.320;2023-04-04T07:13:05;91845.06;;;5.79;100.00
39789;BME280;25478;42.626;23.320;2023-04-04T07:15:30;91777.16;;;5.15;99.57
39789;BME280;25478;42.626;23.320;2023-04-04T07:17:56;91837.19;;;5.36;100.00
39789;BME280;25478;42.626;23.320;2023-04-04T07:20:21;91842.41;;;5.26;100.00
39789;BME280;25478;42.626;23.320;2023-04-04T07:22:47;91859.53;;;5.27;100.00
39789;BME280;25478;42.626;23.320;2023-04-04T07:25:13;91860.28;;;5.17;100.00
39789;BME280;25478;42.626;23.320;2023-04-04T07:27:39;91866.59;;;5.05;99.69
39789;BME280;25478;42.626;23.320;2023-04-04T07:30:05;91872.84;;;4.93;100.00
39789;BME280;25478;42.626;23.320;2023-04-04T07:32:31;91870.97;;;4.87;99.79
39789;BME280;25478;42.626;23.320;2023-04-04T07:34:57;91874.28;;;4.73;99.27
39789;BME280;25478;42.626;23.320;2023-04-04T07:37:22;91882.81;;;4.70;98.81
39789;BME280;25478;42.626;23.320;2023-04-04T07:39:48;91881.28;;;4.62;98.00
39789;BME280;25478;42.626;23.320;2023-04-04T07:42:17;91882.75;;;4.56;98.03
39789;BME280;25478;42.626;23.320;2023-04-04T07:44:56;91883.84;;;4.51;96.20
39789;BME280;25478;42.626;23.320;2023-04-04T07:47:21;91896.09;;;4.47;96.98
39789;BME280;25478;42.626;23.320;2023-04-04T07:49:47;91893.88;;;4.49;96.75
39789;BME280;25478;42.626;23.320;2023-04-04T07:52:12;91904.34;;;4.56;96.72
39789;BME280;25478;42.626;23.320;2023-04-04T07:54:38;91841.94;;;4.19;95.83
39789;BME280;25478;42.626;23.320;2023-04-04T07:57:06;91894.31;;;4.58;95.36
39789;BME280;25478;42.626;23.320;2023-04-04T07:59:35;91915.13;;;4.55;94.14
39789;BME280;25478;42.626;23.320;2023-04-04T08:02:00;91911.38;;;4.48;94.02
39789;BME280;25478;42.626;23.320;2023-04-04T08:04:26;91912.88;;;4.49;94.11
39789;BME280;25478;42.626;23.320;2023-04-04T08:06:52;91921.44;;;4.50;94.55
39789;BME280;25478;42.626;23.320;2023-04-04T08:09:18;91893.41;;;4.36;94.56
39789;BME280;25478;42.626;23.320;2023-04-04T08:11:43;91917.34;;;4.49;94.44
39789;BME280;25478;42.626;23.320;2023-04-04T08:14:09;91924.41;;;4.48;94.17
39789;BME280;25478;42.626;23.320;2023-04-04T08:16:38;91915.84;;;4.48;94.18
39789;BME280;25478;42.626;23.320;2023-04-04T08:19:04;91920.59;;;4.35;94.12
39789;BME280;25478;42.626;23.320;2023-04-04T08:21:29;91932.16;;;4.38;93.57
39789;BME280;25478;42.626;23.320;2023-04-04T08:23:55;91936.56;;;4.30;93.10
39789;BME280;25478;42.626;23.320;2023-04-04T08:26:21;91949.56;;;4.27;93.03
39789;BME280;25478;42.626;23.320;2023-04-04T08:28:47;91943.94;;;4.21;92.11
39789;BME280;25478;42.626;23.320;2023-04-04T08:31:12;91944.28;;;4.16;92.43
39789;BME280;25478;42.626;23.320;2023-04-04T08:33:38;91950.22;;;4.13;92.13
39789;BME280;25478;42.626;23.320;2023-04-04T08:36:04;91952.50;;;4.21;91.39
39789;BME280;25478;42.626;23.320;2023-04-04T08:38:29;91953.63;;;4.20;92.06
39789;BME280;25478;42.626;23.320;2023-04-04T08:40:55;91954.75;;;4.27;91.43
39789;BME280;25478;42.626;23.320;2023-04-04T08:43:22;91958.41;;;4.18;91.38
39789;BME280;25478;42.626;23.320;2023-04-04T08:45:52;91961.34;;;4.10;91.48
39789;BME280;25478;42.626;23.320;2023-04-04T08:48:19;91968.00;;;4.04;91.85
39789;BME280;25478;42.626;23.320;2023-04-04T08:50:45;91967.56;;;3.98;92.81
39789;BME280;25478;42.626;23.320;2023-04-04T08:53:12;91966.81;;;3.98;91.90
39789;BME280;25478;42.626;23.320;2023-04-04T08:55:38;91978.28;;;3.93;92.03
39789;BME280;25478;42.626;23.320;2023-04-04T08:58:04;91973.44;;;3.91;91.90
39789;BME280;25478;42.626;23.320;2023-04-04T09:00:31;91958.88;;;3.83;92.61
39789;BME280;25478;42.626;23.320;2023-04-04T09:03:05;91977.31;;;4.08;92.44
39789;BME280;25478;42.626;23.320;2023-04-04T09:05:34;91982.16;;;4.10;92.85
39789;BME280;25478;42.626;23.320;2023-04-04T09:08:00;91980.75;;;4.19;92.82
39789;BME280;25478;42.626;23.320;2023-04-04T09:10:25;91983.41;;;4.23;93.29
39789;BME280;25478;42.626;23.320;2023-04-04T09:12:51;91977.38;;;4.15;92.83
39789;BME280;25478;42.626;23.320;2023-04-04T09:15:19;91986.63;;;4.09;92.88
39789;BME280;25478;42.626;23.320;2023-04-04T09:17:44;91980.59;;;3.98;92.34
39789;BME280;25478;42.626;23.320;2023-04-04T09:20:42;91980.88;;;3.89;92.67
39789;BME280;25478;42.626;23.320;2023-04-04T09:23:09;91982.28;;;3.80;93.17
39789;BME280;25478;42.626;23.320;2023-04-04T09:25:36;91983.31;;;3.72;93.12
39789;BME280;25478;42.626;23.320;2023-04-04T09:28:03;91975.44;;;3.64;93.46
39789;BME280;25478;42.626;23.320;2023-04-04T09:30:33;91988.75;;;3.59;93.71
39789;BME280;25478;42.626;23.320;2023-04-04T09:33:03;91989.41;;;3.53;94.35
39789;BME280;25478;42.626;23.320;2023-04-04T09:35:35;91997.22;;;3.53;92.94
39789;BME280;25478;42.626;23.320;2023-04-04T09:38:03;91975.44;;;3.31;93.07
39789;BME280;25478;42.626;23.320;2023-04-04T09:40:28;91991.50;;;3.36;93.89
39789;BME280;25478;42.626;23.320;2023-04-04T09:42:58;91976.63;;;3.37;93.80
39789;BME280;25478;42.626;23.320;2023-04-04T09:45:25;91994.69;;;3.60;93.33
39789;BME280;25478;42.626;23.320;2023-04-04T09:47:51;91973.41;;;3.51;93.32
39789;BME280;25478;42.626;23.320;2023-04-04T09:50:22;91996.34;;;3.75;93.65
39789;BME280;25478;42.626;23.320;2023-04-04T09:52:49;91986.78;;;3.86;94.01
39789;BME280;25478;42.626;23.320;2023-04-04T09:55:16;91992.34;;;4.22;93.59
39789;BME280;25478;42.626;23.320;2023-04-04T09:57:42;91977.81;;;4.24;92.42
39789;BME280;25478;42.626;23.320;2023-04-04T10:00:10;91991.00;;;4.42;92.02
39789;BME280;25478;42.626;23.320;2023-04-04T10:02:38;91997.75;;;4.47;91.50
39789;BME280;25478;42.626;23.320;2023-04-04T10:05:08;91993.63;;;4.46;91.78
39789;BME280;25478;42.626;23.320;2023-04-04T10:07:39;91997.88;;;4.68;91.39
39789;BME280;25478;42.626;23.320;2023-04-04T10:10:06;91994.91;;;4.70;90.92
39789;BME280;25478;42.626;23.320;2023-04-04T10:12:32;92002.06;;;4.84;91.11
39789;BME280;25478;42.626;23.320;2023-04-04T10:15:01;92007.72;;;4.89;90.15
39789;BME280;25478;42.626;23.320;2023-04-04T10:17:31;92006.53;;;4.83;88.80
39789;BME280;25478;42.626;23.320;2023-04-04T10:20:03;91995.94;;;4.58;88.03
39789;BME280;25478;42.626;23.320;2023-04-04T10:22:32;91989.19;;;4.50;87.61
39789;BME280;25478;42.626;23.320;2023-04-04T10:24:58;92025.66;;;4.46;87.36
39789;BME280;25478;42.626;23.320;2023-04-04T10:27:24;92023.69;;;4.36;87.58
39789;BME280;25478;42.626;23.320;2023-04-04T10:29:51;92019.13;;;4.22;87.45
39789;BME280;25478;42.626;23.320;2023-04-04T10:32:27;92033.94;;;4.15;87.39
39789;BME280;25478;42.626;23.320;2023-04-04T10:35:02;92047.28;;;4.10;87.74
39789;BME280;25478;42.626;23.320;2023-04-04T10:37:31;92041.25;;;4.02;87.30
39789;BME280;25478;42.626;23.320;2023-04-04T10:40:08;92050.44;;;3.89;87.06
39789;BME280;25478;42.626;23.320;2023-04-04T10:42:41;92050.72;;;3.80;87.63
39789;BME280;25478;42.626;23.320;2023-04-04T10:45:09;92052.50;;;3.76;88.01
39789;BME280;25478;42.626;23.320;2023-04-04T10:47:35;92052.47;;;3.73;87.15
39789;BME280;25478;42.626;23.320;2023-04-04T10:50:03;92054.69;;;3.71;86.81
39789;BME280;25478;42.626;23.320;2023-04-04T10:52:33;92041.81;;;3.51;87.54
39789;BME280;25478;42.626;23.320;2023-04-04T10:55:02;92046.75;;;3.60;86.91
39789;BME280;25478;42.626;23.320;2023-04-04T10:57:39;92044.91;;;3.60;87.29
39789;BME280;25478;42.626;23.320;2023-04-04T11:00:11;92041.91;;;3.58;87.08
39789;BME280;25478;42.626;23.320;2023-04-04T11:07:55;92065.41;;;3.65;86.28
39789;BME280;25478;42.626;23.320;2023-04-04T11:10:23;92069.47;;;3.63;86.33
39789;BME280;25478;42.626;23.320;2023-04-04T11:12:52;92065.78;;;3.64;85.90
39789;BME280;25478;42.626;23.320;2023-04-04T11:15:26;92069.03;;;3.57;85.39
39789;BME280;25478;42.626;23.320;2023-04-04T11:17:57;92073.03;;;3.51;84.85
39789;BME280;25478;42.626;23.320;2023-04-04T11:23:01;92083.28;;;3.37;86.20
39789;BME280;25478;42.626;23.320;2023-04-04T11:27:56;92083.81;;;3.20;86.08
39789;BME280;25478;42.626;23.320;2023-04-04T11:30:26;92080.09;;;3.21;86.33
39789;BME280;25478;42.626;23.320;2023-04-04T11:32:57;92086.47;;;3.27;86.21
39789;BME280;25478;42.626;23.320;2023-04-04T11:35:26;92086.94;;;3.32;85.85
39789;BME280;25478;42.626;23.320;2023-04-04T11:40:18;92086.22;;;3.35;85.64
39789;BME280;25478;42.626;23.320;2023-04-04T11:42:52;92080.97;;;3.32;85.87
39789;BME280;25478;42.626;23.320;2023-04-04T11:45:20;92077.34;;;3.36;85.65
39789;BME280;25478;42.626;23.320;2023-04-04T11:47:50;92085.06;;;3.33;85.98
39789;BME280;25478;42.626;23.320;2023-04-04T11:50:17;92084.38;;;3.36;85.26
39789;BME280;25478;42.626;23.320;2023-04-04T11:52:42;92086.94;;;3.32;85.57
39789;BME280;25478;42.626;23.320;2023-04-04T11:55:18;92068.59;;;3.22;85.44
39789;BME280;25478;42.626;23.320;2023-04-04T11:57:45;92079.53;;;3.34;85.67
39789;BME280;25478;42.626;23.320;2023-04-04T12:00:27;92072.72;;;3.26;84.61
39789;BME280;25478;42.626;23.320;2023-04-04T12:02:55;92080.44;;;3.19;85.18
39789;BME280;25478;42.626;23.320;2023-04-04T12:05:22;92079.69;;;3.19;85.58
39789;BME280;25478;42.626;23.320;2023-04-04T12:07:49;92077.44;;;3.17;85.72
39789;BME280;25478;42.626;23.320;2023-04-04T12:10:16;92079.94;;;3.10;85.93
39789;BME280;25478;42.626;23.320;2023-04-04T12:12:44;92078.00;;;3.03;85.36
39789;BME280;25478;42.626;23.320;2023-04-04T12:15:12;92079.91;;;3.06;85.69
39789;BME280;25478;42.626;23.320;2023-04-04T12:17:40;92081.09;;;3.13;85.28
39789;BME280;25478;42.626;23.320;2023-04-04T12:20:09;92077.25;;;3.03;nan
39789;BME280;25478;42.626;23.320;2023-04-04T12:22:35;92091.25;;;2.95;85.56
39789;BME280;25478;42.626;23.320;2023-04-04T12:25:02;92088.69;;;2.98;86.48
39789;BME280;25478;42.626;23.320;2023-04-04T12:27:30;92090.66;;;3.05;86.55
39789;BME280;25478;42.626;23.320;2023-04-04T12:29:57;92097.28;;;3.02;86.17
39789;BME280;25478;42.626;23.320;2023-04-04T12:32:23;92096.03;;;2.93;87.13
39789;BME280;25478;42.626;23.320;2023-04-04T12:34:49;92089.69;;;2.90;86.80
39789;BME280;25478;42.626;23.320;2023-04-04T12:37:14;92098.13;;;2.83;87.37
39789;BME280;25478;42.626;23.320;2023-04-04T12:39:47;92099.94;;;2.79;86.97
39789;BME280;25478;42.626;23.320;2023-04-04T12:42:20;92100.28;;;2.78;87.85
39789;BME280;25478;42.626;23.320;2023-04-04T12:44:52;92094.50;;;2.65;87.99
39789;BME280;25478;42.626;23.320;2023-04-04T12:47:18;92100.06;;;2.64;88.82
39789;BME280;25478;42.626;23.320;2023-04-04T12:49:47;92100.81;;;2.64;89.73
39789;BME280;25478;42.626;23.320;2023-04-04T12:52:17;92077.66;;;2.56;90.38
39789;BME280;25478;42.626;23.320;2023-04-04T12:54:46;92101.56;;;2.65;90.17
39789;BME280;25478;42.626;23.320;2023-04-04T12:57:17;92095.22;;;2.62;90.71
39789;BME280;25478;42.626;23.320;2023-04-04T12:59:46;92110.72;;;2.59;91.32
39789;BME280;25478;42.626;23.320;2023-04-04T13:02:15;92104.44;;;2.60;91.32
39789;BME280;25478;42.626;23.320;2023-04-04T13:04:45;92103.78;;;2.43;92.12
39789;BME280;25478;42.626;23.320;2023-04-04T13:07:26;92112.69;;;2.42;92.54
39789;BME280;25478;42.626;23.320;2023-04-04T13:09:54;92120.78;;;2.37;93.11
39789;BME280;25478;42.626;23.320;2023-04-04T13:12:21;92125.44;;;2.28;93.94
39789;BME280;25478;42.626;23.320;2023-04-04T13:15:01;92124.03;;;2.34;93.22